sensor_id;sensor_type;location;lat;lon;timestamp;pressure;altitude;pressure_sealevel;temperature
71205;BMP180;58935;54.498;18.544;2023-11-21T00:00:57;100138.80;;;1.96
71205;BMP180;58935;54.498;18.544;2023-11-21T00:03:23;100141.40;;;1.96
71205;BMP180;58935;54.498;18.544;2023-11-21T00:05:49;100144.20;;;1.94
71205;BMP180;58935;54.498;18.544;2023-11-21T00:08:14;100140.40;;;1.94
71205;BMP180;58935;54.498;18.544;2023-11-21T00:10:40;100146.80;;;1.96
71205;BMP180;58935;54.498;18.544;2023-11-21T00:13:05;100147.20;;;2.00
71205;BMP180;58935;54.498;18.544;2023-11-21T00:15:30;100150.60;;;2.00
71205;BMP180;58935;54.498;18.544;2023-11-21T00:17:56;100149.60;;;2.00
71205;BMP180;58935;54.498;18.544;2023-11-21T00:20:21;100155.60;;;2.02
71205;BMP180;58935;54.498;18.544;2023-11-21T00:22:47;100157.40;;;2.10
71205;BMP180;58935;54.498;18.544;2023-11-21T00:25:15;100156.20;;;2.04
71205;BMP180;58935;54.498;18.544;2023-11-21T00:27:42;100158.40;;;2.08
71205;BMP180;58935;54.498;18.544;2023-11-21T00:30:10;100157.80;;;2.02
71205;BMP180;58935;54.498;18.544;2023-11-21T00:32:37;100161.80;;;2.00
71205;BMP180;58935;54.498;18.544;2023-11-21T00:35:02;100164.20;;;2.00
71205;BMP180;58935;54.498;18.544;2023-11-21T00:37:28;100168.80;;;2.00
71205;BMP180;58935;54.498;18.544;2023-11-21T00:39:53;100168.00;;;2.02
71205;BMP180;58935;54.498;18.544;2023-11-21T00:42:21;100171.20;;;2.10
71205;BMP180;58935;54.498;18.544;2023-11-21T00:44:46;100182.80;;;2.10
71205;BMP180;58935;54.498;18.544;2023-11-21T00:47:12;100173.20;;;2.18
71205;BMP180;58935;54.498;18.544;2023-11-21T00:49:37;100173.40;;;2.20
71205;BMP180;58935;54.498;18.544;2023-11-21T00:52:05;100169.60;;;2.14
71205;BMP180;58935;54.498;18.544;2023-11-21T00:54:30;100172.80;;;2.10
71205;BMP180;58935;54.498;18.544;2023-11-21T00:56:55;100181.40;;;2.20
71205;BMP180;58935;54.498;18.544;2023-11-21T00:59:22;100177.20;;;2.20
71205;BMP180;58935;54.498;18.544;2023-11-21T01:01:48;100174.80;;;2.20
71205;BMP180;58935;54.498;18.544;2023-11-21T01:04:16;100180.40;;;2.20
71205;BMP180;58935;54.498;18.544;2023-11-21T01:06:41;100177.80;;;2.20
71205;BMP180;58935;54.498;18.544;2023-11-21T01:09:06;100188.60;;;2.24
71205;BMP180;58935;54.498;18.544;2023-11-21T01:11:34;100183.80;;;2.24
71205;BMP180;58935;54.498;18.544;2023-11-21T01:14:03;100191.00;;;2.30
71205;BMP180;58935;54.498;18.544;2023-11-21T01:16:29;100185.60;;;2.30
71205;BMP180;58935;54.498;18.544;2023-11-21T01:18:55;100186.20;;;2.30
71205;BMP180;58935;54.498;18.544;2023-11-21T01:21:20;100183.80;;;2.30
71205;BMP180;58935;54.498;18.544;2023-11-21T01:23:45;100187.60;;;2.30
71205;BMP180;58935;54.498;18.544;2023-11-21T01:26:12;100190.00;;;2.30
71205;BMP180;58935;54.498;18.544;2023-11-21T01:28:38;100194.80;;;2.30
71205;BMP180;58935;54.498;18.544;2023-11-21T01:31:03;100200.60;;;2.20
71205;BMP180;58935;54.498;18.544;2023-11-21T01:33:34;100198.60;;;2.22
71205;BMP180;58935;54.498;18.544;2023-11-21T01:35:59;100211.00;;;2.22
71205;BMP180;58935;54.498;18.544;2023-11-21T01:38:25;100205.80;;;2.28
71205;BMP180;58935;54.498;18.544;2023-11-21T01:40:53;100212.40;;;2.22
71205;BMP180;58935;54.498;18.544;2023-11-21T01:43:20;100214.80;;;2.20
71205;BMP180;58935;54.498;18.544;2023-11-21T01:45:46;100214.20;;;2.20
71205;BMP180;58935;54.498;18.544;2023-11-21T01:48:13;100221.40;;;2.20
71205;BMP180;58935;54.498;18.544;2023-11-21T01:50:41;100218.80;;;2.20
71205;BMP180;58935;54.498;18.544;2023-11-21T01:53:06;100222.40;;;2.20
71205;BMP180;58935;54.498;18.544;2023-11-21T01:55:32;100224.40;;;2.20
71205;BMP180;58935;54.498;18.544;2023-11-21T01:57:59;100222.40;;;2.20
71205;BMP180;58935;54.498;18.544;2023-11-21T02:00:27;100222.00;;;2.10
71205;BMP180;58935;54.498;18.544;2023-11-21T02:02:53;100224.80;;;2.10
71205;BMP180;58935;54.498;18.544;2023-11-21T02:05:19;100225.40;;;2.10
71205;BMP180;58935;54.498;18.544;2023-11-21T02:07:47;100227.80;;;2.10
71205;BMP180;58935;54.498;18.544;2023-11-21T02:10:14;100230.00;;;2.10
71205;BMP180;58935;54.498;18.544;2023-11-21T02:12:41;100235.40;;;2.16
71205;BMP180;58935;54.498;18.544;2023-11-21T02:15:12;100233.60;;;2.10
71205;BMP180;58935;54.498;18.544;2023-11-21T02:17:42;100238.00;;;2.10
71205;BMP180;58935;54.498;18.544;2023-11-21T02:20:10;100233.20;;;2.10
71205;BMP180;58935;54.498;18.544;2023-11-21T02:22:41;100237.80;;;2.10
71205;BMP180;58935;54.498;18.544;2023-11-21T02:25:08;100239.20;;;2.06
71205;BMP180;58935;54.498;18.544;2023-11-21T02:27:33;100243.40;;;2.02
71205;BMP180;58935;54.498;18.544;2023-11-21T02:29:59;100242.60;;;2.00
71205;BMP180;58935;54.498;18.544;2023-11-21T02:32:26;100250.60;;;2.00
71205;BMP180;58935;54.498;18.544;2023-11-21T02:34:51;100247.60;;;2.00
71205;BMP180;58935;54.498;18.544;2023-11-21T02:37:16;100249.00;;;2.00
71205;BMP180;58935;54.498;18.544;2023-11-21T02:39:42;100255.80;;;2.10
71205;BMP180;58935;54.498;18.544;2023-11-21T02:42:08;100256.40;;;2.10
71205;BMP180;58935;54.498;18.544;2023-11-21T02:44:33;100261.00;;;2.10
71205;BMP180;58935;54.498;18.544;2023-11-21T02:46:59;100259.80;;;2.04
71205;BMP180;58935;54.498;18.544;2023-11-21T02:49:25;100265.80;;;2.00
71205;BMP180;58935;54.498;18.544;2023-11-21T02:51:54;100264.60;;;2.00
71205;BMP180;58935;54.498;18.544;2023-11-21T02:54:23;100265.60;;;2.00
71205;BMP180;58935;54.498;18.544;2023-11-21T02:56:49;100268.40;;;2.00
71205;BMP180;58935;54.498;18.544;2023-11-21T02:59:15;100274.00;;;2.00
71205;BMP180;58935;54.498;18.544;2023-11-21T03:01:40;100275.20;;;2.00
71205;BMP180;58935;54.498;18.544;2023-11-21T03:04:08;100276.80;;;2.02
71205;BMP180;58935;54.498;18.544;2023-11-21T03:06:33;100279.60;;;2.00
71205;BMP180;58935;54.498;18.544;2023-11-21T03:08:59;100279.40;;;2.00
71205;BMP180;58935;54.498;18.544;2023-11-21T03:11:25;100276.20;;;2.00
71205;BMP180;58935;54.498;18.544;2023-11-21T03:13:50;100285.00;;;2.00
71205;BMP180;58935;54.498;18.544;2023-11-21T03:16:15;100282.20;;;2.00
71205;BMP180;58935;54.498;18.544;2023-11-21T03:18:41;100283.80;;;2.00
71205;BMP180;58935;54.498;18.544;2023-11-21T03:21:09;100289.40;;;2.00
71205;BMP180;58935;54.498;18.544;2023-11-21T03:23:36;100286.40;;;2.00
71205;BMP180;58935;54.498;18.544;2023-11-21T03:26:02;100291.00;;;2.00
71205;BMP180;58935;54.498;18.544;2023-11-21T03:28:27;100293.20;;;2.00
71205;BMP180;58935;54.498;18.544;2023-11-21T03:30:55;100298.20;;;2.00
71205;BMP180;58935;54.498;18.544;2023-11-21T03:33:23;100294.00;;;2.00
71205;BMP180;58935;54.498;18.544;2023-11-21T03:35:49;100288.80;;;2.00
71205;BMP180;58935;54.498;18.544;2023-11-21T03:38:14;100284.80;;;1.96
71205;BMP180;58935;54.498;18.544;2023-11-21T03:40:41;100294.80;;;2.00
71205;BMP180;58935;54.498;18.544;2023-11-21T03:43:09;100294.40;;;1.90
71205;BMP180;58935;54.498;18.544;2023-11-21T03:45:34;100298.60;;;1.90
71205;BMP180;58935;54.498;18.544;2023-11-21T03:47:59;100295.20;;;1.90
71205;BMP180;58935;54.498;18.544;2023-11-21T03:50:28;100292.40;;;1.90
71205;BMP180;58935;54.498;18.544;2023-11-21T03:52:54;100297.20;;;1.90
71205;BMP180;58935;54.498;18.544;2023-11-21T03:55:19;100298.80;;;1.88
71205;BMP180;58935;54.498;18.544;2023-11-21T03:57:51;100301.80;;;1.80
71205;BMP180;58935;54.498;18.544;2023-11-21T04:00:17;100299.40;;;1.80
71205;BMP180;58935;54.498;18.544;2023-11-21T04:02:43;100303.60;;;1.80
71205;BMP180;58935;54.498;18.544;2023-11-21T04:05:10;100299.20;;;1.80
71205;BMP180;58935;54.498;18.544;2023-11-21T04:07:35;100313.40;;;1.80
71205;BMP180;58935;54.498;18.544;2023-11-21T04:10:04;100312.80;;;1.82
71205;BMP180;58935;54.498;18.544;2023-11-21T04:12:35;100314.60;;;1.80
71205;BMP180;58935;54.498;18.544;2023-11-21T04:15:01;100321.60;;;1.90
71205;BMP180;58935;54.498;18.544;2023-11-21T04:17:26;100319.20;;;1.90
71205;BMP180;58935;54.498;18.544;2023-11-21T04:19:52;100322.60;;;1.90
71205;BMP180;58935;54.498;18.544;2023-11-21T04:22:17;100327.40;;;1.90
71205;BMP180;58935;54.498;18.544;2023-11-21T04:24:42;100325.80;;;1.80
71205;BMP180;58935;54.498;18.544;2023-11-21T04:27:08;100330.40;;;1.80
71205;BMP180;58935;54.498;18.544;2023-11-21T04:29:33;100322.40;;;1.70
71205;BMP180;58935;54.498;18.544;2023-11-21T04:32:00;100335.20;;;1.70
71205;BMP180;58935;54.498;18.544;2023-11-21T04:34:26;100341.00;;;1.70
71205;BMP180;58935;54.498;18.544;2023-11-21T04:36:51;100340.80;;;1.70
71205;BMP180;58935;54.498;18.544;2023-11-21T04:39:16;100343.40;;;1.70
71205;BMP180;58935;54.498;18.544;2023-11-21T04:41:42;100341.20;;;1.70
71205;BMP180;58935;54.498;18.544;2023-11-21T04:44:09;100352.00;;;1.60
71205;BMP180;58935;54.498;18.544;2023-11-21T04:46:37;100353.40;;;1.60
71205;BMP180;58935;54.498;18.544;2023-11-21T04:49:02;100354.60;;;1.60
71205;BMP180;58935;54.498;18.544;2023-11-21T04:51:30;100351.40;;;1.60
71205;BMP180;58935;54.498;18.544;2023-11-21T04:53:57;100359.80;;;1.60
71205;BMP180;58935;54.498;18.544;2023-11-21T04:56:25;100363.60;;;1.60
71205;BMP180;58935;54.498;18.544;2023-11-21T04:58:50;100367.20;;;1.60
71205;BMP180;58935;54.498;18.544;2023-11-21T05:01:15;100381.60;;;1.60
71205;BMP180;58935;54.498;18.544;2023-11-21T05:03:43;100376.00;;;1.60
71205;BMP180;58935;54.498;18.544;2023-11-21T05:06:10;100379.80;;;1.60
71205;BMP180;58935;54.498;18.544;2023-11-21T05:08:38;100378.00;;;1.60
71205;BMP180;58935;54.498;18.544;2023-11-21T05:11:03;100383.60;;;1.60
71205;BMP180;58935;54.498;18.544;2023-11-21T05:13:29;100385.60;;;1.60
71205;BMP180;58935;54.498;18.544;2023-11-21T05:15:57;100388.60;;;1.60
71205;BMP180;58935;54.498;18.544;2023-11-21T05:18:22;100402.60;;;1.58
71205;BMP180;58935;54.498;18.544;2023-11-21T05:20:50;100399.80;;;1.50
71205;BMP180;58935;54.498;18.544;2023-11-21T05:23:18;100405.00;;;1.50
71205;BMP180;58935;54.498;18.544;2023-11-21T05:25:43;100414.40;;;1.50
71205;BMP180;58935;54.498;18.544;2023-11-21T05:28:08;100417.80;;;1.50
71205;BMP180;58935;54.498;18.544;2023-11-21T05:30:34;100429.40;;;1.50
71205;BMP180;58935;54.498;18.544;2023-11-21T05:32:59;100433.60;;;1.40
71205;BMP180;58935;54.498;18.544;2023-11-21T05:35:24;100434.20;;;1.40
71205;BMP180;58935;54.498;18.544;2023-11-21T05:37:50;100440.20;;;1.38
71205;BMP180;58935;54.498;18.544;2023-11-21T05:40:17;100438.20;;;1.32
71205;BMP180;58935;54.498;18.544;2023-11-21T05:42:43;100442.60;;;1.30
71205;BMP180;58935;54.498;18.544;2023-11-21T05:45:11;100451.60;;;1.30
71205;BMP180;58935;54.498;18.544;2023-11-21T05:47:41;100448.60;;;1.30
71205;BMP180;58935;54.498;18.544;2023-11-21T05:50:08;100459.40;;;1.30
71205;BMP180;58935;54.498;18.544;2023-11-21T05:52:40;100463.60;;;1.30
71205;BMP180;58935;54.498;18.544;2023-11-21T05:55:06;100474.00;;;1.20
71205;BMP180;58935;54.498;18.544;2023-11-21T05:57:38;100471.40;;;1.20
71205;BMP180;58935;54.498;18.544;2023-11-21T06:00:08;100476.60;;;1.24
71205;BMP180;58935;54.498;18.544;2023-11-21T06:02:40;100475.80;;;1.30
71205;BMP180;58935;54.498;18.544;2023-11-21T06:05:07;100482.60;;;1.24
71205;BMP180;58935;54.498;18.544;2023-11-21T06:07:35;100484.20;;;1.20
71205;BMP180;58935;54.498;18.544;2023-11-21T06:10:03;100495.00;;;1.20
71205;BMP180;58935;54.498;18.544;2023-11-21T06:12:31;100499.60;;;1.20
71205;BMP180;58935;54.498;18.544;2023-11-21T06:15:02;100510.60;;;1.20
71205;BMP180;58935;54.498;18.544;2023-11-21T06:17:30;100508.60;;;1.20
71205;BMP180;58935;54.498;18.544;2023-11-21T06:19:55;100513.80;;;1.20
71205;BMP180;58935;54.498;18.544;2023-11-21T06:22:21;100517.60;;;1.20
71205;BMP180;58935;54.498;18.544;2023-11-21T06:24:49;100520.20;;;1.20
71205;BMP180;58935;54.498;18.544;2023-11-21T06:27:14;100520.80;;;1.20
71205;BMP180;58935;54.498;18.544;2023-11-21T06:29:41;100526.00;;;1.20
71205;BMP180;58935;54.498;18.544;2023-11-21T06:32:07;100526.00;;;1.20
71205;BMP180;58935;54.498;18.544;2023-11-21T06:34:33;100533.40;;;1.20
71205;BMP180;58935;54.498;18.544;2023-11-21T06:36:59;100542.80;;;1.20
71205;BMP180;58935;54.498;18.544;2023-11-21T06:39:24;100544.40;;;1.10
71205;BMP180;58935;54.498;18.544;2023-11-21T06:41:49;100555.00;;;1.10
71205;BMP180;58935;54.498;18.544;2023-11-21T06:44:15;100555.60;;;1.10
71205;BMP180;58935;54.498;18.544;2023-11-21T06:46:40;100560.80;;;1.20
71205;BMP180;58935;54.498;18.544;2023-11-21T06:49:08;100564.80;;;1.20
71205;BMP180;58935;54.498;18.544;2023-11-21T06:51:33;100562.40;;;1.20
71205;BMP180;58935;54.498;18.544;2023-11-21T06:54:01;100572.40;;;1.30
71205;BMP180;58935;54.498;18.544;2023-11-21T06:56:29;100581.80;;;1.28
71205;BMP180;58935;54.498;18.544;2023-11-21T06:58:54;100588.40;;;1.30
71205;BMP180;58935;54.498;18.544;2023-11-21T07:01:20;100594.20;;;1.30
71205;BMP180;58935;54.498;18.544;2023-11-21T07:03:45;100604.80;;;1.24
71205;BMP180;58935;54.498;18.544;2023-11-21T07:06:13;100602.60;;;1.20
71205;BMP180;58935;54.498;18.544;2023-11-21T07:08:38;100607.40;;;1.20
71205;BMP180;58935;54.498;18.544;2023-11-21T07:11:04;100609.40;;;1.18
71205;BMP180;58935;54.498;18.544;2023-11-21T07:13:30;100612.40;;;1.20
71205;BMP180;58935;54.498;18.544;2023-11-21T07:15:59;100616.00;;;1.20
71205;BMP180;58935;54.498;18.544;2023-11-21T07:18:27;100609.40;;;1.20
71205;BMP180;58935;54.498;18.544;2023-11-21T07:20:52;100617.60;;;1.20
71205;BMP180;58935;54.498;18.544;2023-11-21T07:23:18;100621.20;;;1.20
71205;BMP180;58935;54.498;18.544;2023-11-21T07:25:46;100619.60;;;1.20
71205;BMP180;58935;54.498;18.544;2023-11-21T07:28:12;100624.80;;;1.20
71205;BMP180;58935;54.498;18.544;2023-11-21T07:30:37;100620.40;;;1.20
71205;BMP180;58935;54.498;18.544;2023-11-21T07:33:03;100622.40;;;1.18
71205;BMP180;58935;54.498;18.544;2023-11-21T07:35:28;100621.00;;;1.18
71205;BMP180;58935;54.498;18.544;2023-11-21T07:37:56;100625.60;;;1.20
71205;BMP180;58935;54.498;18.544;2023-11-21T07:40:22;100626.60;;;1.20
71205;BMP180;58935;54.498;18.544;2023-11-21T07:42:50;100623.40;;;1.20
71205;BMP180;58935;54.498;18.544;2023-11-21T07:45:16;100623.60;;;1.28
71205;BMP180;58935;54.498;18.544;2023-11-21T07:47:42;100630.60;;;1.30
71205;BMP180;58935;54.498;18.544;2023-11-21T07:50:07;100629.80;;;1.30
71205;BMP180;58935;54.498;18.544;2023-11-21T07:52:33;100629.00;;;1.30
71205;BMP180;58935;54.498;18.544;2023-11-21T07:54:58;100630.20;;;1.30
71205;BMP180;58935;54.498;18.544;2023-11-21T07:57:27;100627.60;;;1.40
71205;BMP180;58935;54.498;18.544;2023-11-21T07:59:52;100637.60;;;1.40
71205;BMP180;58935;54.498;18.544;2023-11-21T08:02:21;100635.20;;;1.40
71205;BMP180;58935;54.498;18.544;2023-11-21T08:04:47;100630.40;;;1.48
71205;BMP180;58935;54.498;18.544;2023-11-21T08:07:15;100638.80;;;1.50
71205;BMP180;58935;54.498;18.544;2023-11-21T08:09:42;100644.20;;;1.50
71205;BMP180;58935;54.498;18.544;2023-11-21T08:12:07;100635.20;;;1.60
71205;BMP180;58935;54.498;18.544;2023-11-21T08:14:32;100640.40;;;1.60
71205;BMP180;58935;54.498;18.544;2023-11-21T08:16:58;100639.40;;;1.60
71205;BMP180;58935;54.498;18.544;2023-11-21T08:19:24;100636.40;;;1.68
71205;BMP180;58935;54.498;18.544;2023-11-21T08:21:51;100641.20;;;1.70
71205;BMP180;58935;54.498;18.544;2023-11-21T08:24:19;100644.20;;;1.78
71205;BMP180;58935;54.498;18.544;2023-11-21T08:26:45;100649.20;;;1.80
71205;BMP180;58935;54.498;18.544;2023-11-21T08:29:10;100651.40;;;1.84
71205;BMP180;58935;54.498;18.544;2023-11-21T08:31:36;100650.80;;;1.90
71205;BMP180;58935;54.498;18.544;2023-11-21T08:34:03;100659.60;;;1.90
71205;BMP180;58935;54.498;18.544;2023-11-21T08:36:28;100657.00;;;2.00
71205;BMP180;58935;54.498;18.544;2023-11-21T08:38:59;100656.80;;;2.10
71205;BMP180;58935;54.498;18.544;2023-11-21T08:41:24;100669.60;;;2.10
71205;BMP180;58935;54.498;18.544;2023-11-21T08:43:50;100664.80;;;2.10
71205;BMP180;58935;54.498;18.544;2023-11-21T08:46:16;100662.40;;;2.10
71205;BMP180;58935;54.498;18.544;2023-11-21T08:48:43;100671.00;;;2.10
71205;BMP180;58935;54.498;18.544;2023-11-21T08:51:10;100676.60;;;2.20
71205;BMP180;58935;54.498;18.544;2023-11-21T08:53:36;100676.80;;;2.20
71205;BMP180;58935;54.498;18.544;2023-11-21T08:56:03;100680.00;;;2.20
71205;BMP180;58935;54.498;18.544;2023-11-21T08:58:30;100681.20;;;2.24
71205;BMP180;58935;54.498;18.544;2023-11-21T09:00:57;100681.40;;;2.26
71205;BMP180;58935;54.498;18.544;2023-11-21T09:03:22;100684.80;;;2.20
71205;BMP180;58935;54.498;18.544;2023-11-21T09:05:48;100690.00;;;2.24
71205;BMP180;58935;54.498;18.544;2023-11-21T09:08:13;100687.80;;;2.30
71205;BMP180;58935;54.498;18.544;2023-11-21T09:10:39;100691.80;;;2.30
71205;BMP180;58935;54.498;18.544;2023-11-21T09:13:07;100687.60;;;2.30
71205;BMP180;58935;54.498;18.544;2023-11-21T09:15:34;100691.80;;;2.30
71205;BMP180;58935;54.498;18.544;2023-11-21T09:18:00;100688.80;;;2.30
71205;BMP180;58935;54.498;18.544;2023-11-21T09:20:26;100694.40;;;2.30
71205;BMP180;58935;54.498;18.544;2023-11-21T09:22:52;100692.60;;;2.30
71205;BMP180;58935;54.498;18.544;2023-11-21T09:25:17;100691.60;;;2.34
71205;BMP180;58935;54.498;18.544;2023-11-21T09:27:44;100690.40;;;2.40
71205;BMP180;58935;54.498;18.544;2023-11-21T09:30:12;100691.60;;;2.44
71205;BMP180;58935;54.498;18.544;2023-11-21T09:32:39;100690.60;;;2.44
71205;BMP180;58935;54.498;18.544;2023-11-21T09:35:06;100693.00;;;2.40
71205;BMP180;58935;54.498;18.544;2023-11-21T09:37:33;100694.80;;;2.40
71205;BMP180;58935;54.498;18.544;2023-11-21T09:39:59;100689.80;;;2.40
71205;BMP180;58935;54.498;18.544;2023-11-21T09:42:30;100693.40;;;2.40
71205;BMP180;58935;54.498;18.544;2023-11-21T09:45:03;100699.00;;;2.48
71205;BMP180;58935;54.498;18.544;2023-11-21T09:47:32;100699.00;;;2.46
71205;BMP180;58935;54.498;18.544;2023-11-21T09:50:01;100703.20;;;2.50
71205;BMP180;58935;54.498;18.544;2023-11-21T09:52:29;100694.20;;;2.50
71205;BMP180;58935;54.498;18.544;2023-11-21T09:54:55;100696.60;;;2.60
71205;BMP180;58935;54.498;18.544;2023-11-21T09:57:24;100693.80;;;2.60
71205;BMP180;58935;54.498;18.544;2023-11-21T09:59:51;100691.20;;;2.60
71205;BMP180;58935;54.498;18.544;2023-11-21T10:02:22;100695.00;;;2.60
71205;BMP180;58935;54.498;18.544;2023-11-21T10:04:53;100688.60;;;2.60
71205;BMP180;58935;54.498;18.544;2023-11-21T10:07:20;100688.60;;;2.60
71205;BMP180;58935;54.498;18.544;2023-11-21T10:09:46;100693.80;;;2.60
71205;BMP180;58935;54.498;18.544;2023-11-21T10:12:14;100691.80;;;2.70
71205;BMP180;58935;54.498;18.544;2023-11-21T10:14:41;100694.80;;;2.70
71205;BMP180;58935;54.498;18.544;2023-11-21T10:17:12;100687.40;;;2.70
71205;BMP180;58935;54.498;18.544;2023-11-21T10:19:39;100699.20;;;2.70
71205;BMP180;58935;54.498;18.544;2023-11-21T10:22:07;100705.60;;;2.70
71205;BMP180;58935;54.498;18.544;2023-11-21T10:24:34;100707.00;;;2.74
71205;BMP180;58935;54.498;18.544;2023-11-21T10:26:59;100710.40;;;2.80
71205;BMP180;58935;54.498;18.544;2023-11-21T10:29:29;100713.00;;;2.70
71205;BMP180;58935;54.498;18.544;2023-11-21T10:31:55;100719.80;;;2.70
71205;BMP180;58935;54.498;18.544;2023-11-21T10:34:23;100724.20;;;2.70
71205;BMP180;58935;54.498;18.544;2023-11-21T10:36:53;100722.60;;;2.60
71205;BMP180;58935;54.498;18.544;2023-11-21T10:39:20;100722.40;;;2.60
71205;BMP180;58935;54.498;18.544;2023-11-21T10:41:49;100727.60;;;2.60
71205;BMP180;58935;54.498;18.544;2023-11-21T10:44:15;100733.40;;;2.50
71205;BMP180;58935;54.498;18.544;2023-11-21T10:46:44;100739.20;;;2.50
71205;BMP180;58935;54.498;18.544;2023-11-21T10:49:10;100739.00;;;2.50
71205;BMP180;58935;54.498;18.544;2023-11-21T10:51:43;100735.80;;;2.40
71205;BMP180;58935;54.498;18.544;2023-11-21T10:54:12;100737.20;;;2.40
71205;BMP180;58935;54.498;18.544;2023-11-21T10:56:41;100737.80;;;2.40
71205;BMP180;58935;54.498;18.544;2023-11-21T10:59:11;100740.40;;;2.30
71205;BMP180;58935;54.498;18.544;2023-11-21T11:01:44;100734.60;;;2.30
71205;BMP180;58935;54.498;18.544;2023-11-21T11:04:11;100741.80;;;2.30
71205;BMP180;58935;54.498;18.544;2023-11-21T11:06:43;100739.00;;;2.30
71205;BMP180;58935;54.498;18.544;2023-11-21T11:09:12;100743.40;;;2.30
71205;BMP180;58935;54.498;18.544;2023-11-21T11:11:40;100745.60;;;2.30
71205;BMP180;58935;54.498;18.544;2023-11-21T11:14:09;100746.80;;;2.30
71205;BMP180;58935;54.498;18.544;2023-11-21T11:16:36;100752.60;;;2.30
71205;BMP180;58935;54.498;18.544;2023-11-21T11:19:05;100752.80;;;2.30
71205;BMP180;58935;54.498;18.544;2023-11-21T11:27:08;100763.00;;;2.30
71205;BMP180;58935;54.498;18.544;2023-11-21T11:29:45;100766.40;;;2.22
71205;BMP180;58935;54.498;18.544;2023-11-21T11:34:52;100769.60;;;2.30
71205;BMP180;58935;54.498;18.544;2023-11-21T11:37:19;100766.80;;;2.40
71205;BMP180;58935;54.498;18.544;2023-11-21T11:39:49;100769.00;;;2.30
71205;BMP180;58935;54.498;18.544;2023-11-21T11:42:16;100771.40;;;2.30
71205;BMP180;58935;54.498;18.544;2023-11-21T11:44:47;100775.80;;;2.22
71205;BMP180;58935;54.498;18.544;2023-11-21T11:47:20;100772.20;;;2.30
71205;BMP180;58935;54.498;18.544;2023-11-21T11:54:49;100776.40;;;2.20
71205;BMP180;58935;54.498;18.544;2023-11-21T11:57:17;100775.60;;;2.24
71205;BMP180;58935;54.498;18.544;2023-11-21T12:00:19;100777.00;;;2.22
71205;BMP180;58935;54.498;18.544;2023-11-21T12:02:31;100780.00;;;2.32
71205;BMP180;58935;54.498;18.544;2023-11-21T12:04:56;100779.20;;;2.40
71205;BMP180;58935;54.498;18.544;2023-11-21T12:07:22;100782.20;;;2.40
71205;BMP180;58935;54.498;18.544;2023-11-21T12:09:49;100784.80;;;2.32
71205;BMP180;58935;54.498;18.544;2023-11-21T12:12:16;100795.20;;;2.32
71205;BMP180;58935;54.498;18.544;2023-11-21T12:14:44;100796.00;;;2.34
71205;BMP180;58935;54.498;18.544;2023-11-21T12:17:10;100783.80;;;2.30
71205;BMP180;58935;54.498;18.544;2023-11-21T12:19:36;100794.00;;;2.30
71205;BMP180;58935;54.498;18.544;2023-11-21T12:22:02;100793.00;;;2.30
71205;BMP180;58935;54.498;18.544;2023-11-21T12:24:27;100784.20;;;2.30
71205;BMP180;58935;54.498;18.544;2023-11-21T12:26:54;100788.40;;;2.32
71205;BMP180;58935;54.498;18.544;2023-11-21T12:29:19;100796.20;;;2.40
71205;BMP180;58935;54.498;18.544;2023-11-21T12:31:45;100795.80;;;2.40
71205;BMP180;58935;54.498;18.544;2023-11-21T12:34:11;100802.20;;;2.46
71205;BMP180;58935;54.498;18.544;2023-11-21T12:36:37;100805.00;;;2.50
71205;BMP180;58935;54.498;18.544;2023-11-21T12:39:02;100800.20;;;2.50
71205;BMP180;58935;54.498;18.544;2023-11-21T12:41:31;100804.80;;;2.50
71205;BMP180;58935;54.498;18.544;2023-11-21T12:43:56;100804.20;;;2.60
71205;BMP180;58935;54.498;18.544;2023-11-21T12:46:22;100812.00;;;2.64
71205;BMP180;58935;54.498;18.544;2023-11-21T12:48:48;100817.60;;;2.70
71205;BMP180;58935;54.498;18.544;2023-11-21T12:51:14;100812.60;;;2.70
71205;BMP180;58935;54.498;18.544;2023-11-21T12:53:42;100815.00;;;2.60
71205;BMP180;58935;54.498;18.544;2023-11-21T12:56:12;100811.20;;;2.60
71205;BMP180;58935;54.498;18.544;2023-11-21T12:58:39;100818.00;;;2.60
71205;BMP180;58935;54.498;18.544;2023-11-21T13:01:09;100818.20;;;2.68
71205;BMP180;58935;54.498;18.544;2023-11-21T13:03:40;100818.00;;;2.70
71205;BMP180;58935;54.498;18.544;2023-11-21T13:08:41;100830.40;;;2.80
71205;BMP180;58935;54.498;18.544;2023-11-21T13:11:15;100827.80;;;2.80
71205;BMP180;58935;54.498;18.544;2023-11-21T13:16:21;100828.20;;;2.90
71205;BMP180;58935;54.498;18.544;2023-11-21T13:23:55;100837.00;;;2.88
71205;BMP180;58935;54.498;18.544;2023-11-21T13:26:23;100840.40;;;2.90
71205;BMP180;58935;54.498;18.544;2023-11-21T13:28:53;100844.80;;;2.90
71205;BMP180;58935;54.498;18.544;2023-11-21T13:31:18;100850.80;;;2.80
71205;BMP180;58935;54.498;18.544;2023-11-21T13:33:50;100854.20;;;2.80
71205;BMP180;58935;54.498;18.544;2023-11-21T13:36:22;100862.00;;;2.70
71205;BMP180;58935;54.498;18.544;2023-11-21T13:38:50;100862.40;;;2.70
71205;BMP180;58935;54.498;18.544;2023-11-21T13:41:15;100867.80;;;2.70
71205;BMP180;58935;54.498;18.544;2023-11-21T13:43:43;100862.80;;;2.70
71205;BMP180;58935;54.498;18.544;2023-11-21T13:46:18;100865.60;;;2.60
71205;BMP180;58935;54.498;18.544;2023-11-21T13:48:47;100869.40;;;2.60
71205;BMP180;58935;54.498;18.544;2023-11-21T13:51:19;100864.80;;;2.58
71205;BMP180;58935;54.498;18.544;2023-11-21T13:53:47;100867.00;;;2.50
71205;BMP180;58935;54.498;18.544;2023-11-21T13:56:15;100867.60;;;2.60
71205;BMP180;58935;54.498;18.544;2023-11-21T13:58:47;100866.00;;;2.60
71205;BMP180;58935;54.498;18.544;2023-11-21T14:01:17;100868.20;;;2.60
71205;BMP180;58935;54.498;18.544;2023-11-21T14:03:45;100870.60;;;2.60
71205;BMP180;58935;54.498;18.544;2023-11-21T14:06:17;100870.40;;;2.60
71205;BMP180;58935;54.498;18.544;2023-11-21T14:08:51;100873.20;;;2.52
71205;BMP180;58935;54.498;18.544;2023-11-21T14:11:18;100879.40;;;2.52
71205;BMP180;58935;54.498;18.544;2023-11-21T14:13:45;100878.60;;;2.60
71205;BMP180;58935;54.498;18.544;2023-11-21T14:16:14;100877.80;;;2.58
71205;BMP180;58935;54.498;18.544;2023-11-21T14:18:42;100881.00;;;2.58